Time;durP1;ratioP1;P1;durP2;ratioP2;P2;SDS_P1;SDS_P2;PMS_P1;PMS_P2;Temp;Humidity;BMP_temperature;BMP_pressure;BME280_temperature;BME280_humidity;BME280_pressure;Samples;Min_cycle;Max_cycle;Signal;HPM_P1;HPM_P2
2022/05/10 00:00:09;;;;;;;2.45;1.25;;;22.10;84.60;;;;;;6254656;23;20050;-44
2022/05/10 00:02:35;;;;;;;2.38;1.20;;;;;;;;;;6254491;22;20079;-44
2022/05/10 00:05:01;;;;;;;1.52;1.25;;;21.80;84.30;;;;;;6254436;23;20008;-44
2022/05/10 00:07:31;;;;;;;2.20;1.23;;;21.70;84.40;;;;;;6254564;23;20003;-44
2022/05/10 00:09:57;;;;;;;3.03;1.50;;;22.20;84.60;;;;;;6254628;23;20454;-45
2022/05/10 00:12:23;;;;;;;2.30;1.17;;;;;;;;;;6254403;23;19999;-44
2022/05/10 00:14:49;;;;;;;2.28;1.52;;;;;;;;;;6254391;23;20039;-44
2022/05/10 00:17:24;;;;;;;4.20;1.40;;;22.00;51.40;;;;;;6244616;23;20008;-44
2022/05/10 00:19:50;;;;;;;1.85;1.20;;;22.20;83.30;;;;;;6254420;23;20004;-44
2022/05/10 00:22:15;;;;;;;2.80;1.17;;;;;;;;;;6255592;23;20067;-46
2022/05/10 00:24:41;;;;;;;1.38;1.10;;;;;;;;;;6256577;23;20003;-44
2022/05/10 00:27:07;;;;;;;3.58;1.58;;;;;;;;;;6256576;23;20075;-44
2022/05/10 00:29:33;;;;;;;4.40;1.40;;;;;;;;;;6256436;23;20012;-45
2022/05/10 00:31:59;;;;;;;2.08;1.13;;;;;;;;;;6256549;23;20002;-44
2022/05/10 00:34:29;;;;;;;3.05;1.25;;;21.90;51.10;;;;;;6256498;23;19997;-45
2022/05/10 00:36:55;;;;;;;2.97;1.38;;;22.00;51.20;;;;;;6256527;23;20004;-45
2022/05/10 00:39:21;;;;;;;1.75;1.30;;;21.90;84.30;;;;;;6256429;23;20019;-44
2022/05/10 00:41:58;;;;;;;2.38;1.50;;;22.00;50.40;;;;;;6256492;23;20430;-45
2022/05/10 00:44:32;;;;;;;2.53;1.20;;;21.90;84.20;;;;;;6256435;23;19992;-44
2022/05/10 00:47:01;;;;;;;3.28;1.23;;;22.20;72.60;;;;;;6246581;23;20007;-45
2022/05/10 00:49:32;;;;;;;2.28;1.50;;;22.20;84.50;;;;;;6256296;23;20050;-45
2022/05/10 00:52:23;;;;;;;2.50;1.50;;;22.10;81.50;;;;;;6256531;23;20008;-45
2022/05/10 00:54:58;;;;;;;2.67;1.60;;;21.90;50.30;;;;;;6256472;23;20075;-45
2022/05/10 00:57:35;;;;;;;2.25;1.40;;;22.30;50.50;;;;;;6256326;23;20067;-45
2022/05/10 01:00:08;;;;;;;3.25;1.52;;;21.80;79.10;;;;;;6256310;23;20000;-44
2022/05/10 01:02:52;;;;;;;4.10;1.83;;;22.10;84.30;;;;;;6245850;22;19999;-44
2022/05/10 01:05:30;;;;;;;2.20;1.60;;;21.70;84.00;;;;;;6256250;23;20012;-45
2022/05/10 01:08:21;;;;;;;2.25;1.40;;;21.80;80.30;;;;;;6246451;23;19996;-45
2022/05/10 01:11:22;;;;;;;2.42;1.40;;;21.90;50.30;;;;;;6256311;23;20035;-44
2022/05/10 01:13:52;;;;;;;;;;;21.90;50.80;;;;;;6256601;23;19996;-44
2022/05/10 01:16:23;;;;;;;3.58;1.30;;;21.90;84.20;;;;;;6256149;23;19907;-45
2022/05/10 01:18:50;;;;;;;2.20;1.48;;;21.80;84.30;;;;;;6246252;23;19996;-44
2022/05/10 01:21:18;;;;;;;2.20;1.50;;;21.80;72.10;;;;;;6256089;23;19996;-44
2022/05/10 01:24:18;;;;;;;2.28;1.45;;;21.90;84.40;;;;;;6255950;23;19992;-44
2022/05/10 01:26:50;;;;;;;2.20;1.42;;;21.90;82.40;;;;;;6255994;23;20053;-46
2022/05/10 01:29:26;;;;;;;2.90;1.55;;;21.70;50.20;;;;;;6256011;23;20093;-45
2022/05/10 01:34:45;;;;;;;2.00;1.20;;;22.10;75.80;;;;;;6245459;23;20070;-44
2022/05/10 01:37:18;;;;;;;1.50;1.30;;;22.00;59.10;;;;;;6255964;23;19996;-44
2022/05/10 01:40:03;;;;;;;2.30;1.55;;;21.80;72.00;;;;;;6246066;23;20005;-45
2022/05/10 01:42:43;;;;;;;1.92;1.20;;;21.80;73.20;;;;;;6255920;23;20050;-45
2022/05/10 01:45:21;;;;;;;;;;;22.30;52.20;;;;;;6256459;23;20003;-45
2022/05/10 01:47:56;;;;;;;2.20;1.63;;;21.60;65.60;;;;;;6255865;23;19906;-44
2022/05/10 01:50:57;;;;;;;1.65;1.17;;;21.90;78.20;;;;;;6255728;23;20008;-44
2022/05/10 01:53:31;;;;;;;1.90;1.58;;;21.80;50.20;;;;;;6255841;23;20004;-44
2022/05/10 01:56:06;;;;;;;3.08;1.80;;;21.80;50.10;;;;;;6245889;23;20335;-44
2022/05/10 01:58:35;;;;;;;4.40;1.98;;;22.10;52.50;;;;;;6245514;23;19996;-45
2022/05/10 02:01:07;;;;;;;2.25;1.67;;;22.10;51.50;;;;;;6255606;23;20491;-45
2022/05/10 02:03:34;;;;;;;1.50;1.40;;;;;;;;;;6255597;23;20045;-44
2022/05/10 02:06:08;;;;;;;2.13;1.60;;;21.90;84.30;;;;;;6255647;23;20004;-45
2022/05/10 02:09:01;;;;;;;2.70;1.60;;;21.80;82.90;;;;;;6255566;23;20020;-45
2022/05/10 02:11:28;;;;;;;2.67;1.60;;;21.90;84.30;;;;;;6245863;23;20004;-44
2022/05/10 02:14:13;;;;;;;2.10;1.35;;;21.90;50.20;;;;;;6255499;23;19999;-45
2022/05/10 02:16:49;;;;;;;3.53;1.55;;;21.70;84.20;;;;;;6245768;23;20011;-45
2022/05/10 02:19:23;;;;;;;3.35;1.65;;;21.80;51.50;;;;;;6255597;23;20075;-45
2022/05/10 02:21:54;;;;;;;1.63;1.52;;;21.80;51.20;;;;;;6255515;23;20043;-44
2022/05/10 02:24:32;;;;;;;2.80;1.67;;;21.90;84.20;;;;;;6255631;23;19996;-44
2022/05/10 02:27:04;;;;;;;3.30;1.50;;;21.90;83.90;;;;;;6255503;23;20423;-44
2022/05/10 02:29:30;;;;;;;2.65;1.75;;;;;;;;;;6255357;23;20008;-45
2022/05/10 02:34:50;;;;;;;1.85;1.45;;;22.00;84.50;;;;;;6255443;23;20070;-44
2022/05/10 02:37:16;;;;;;;2.03;1.65;;;;;;;;;;6246435;23;20004;-45
2022/05/10 02:39:42;;;;;;;2.15;1.63;;;21.90;65.70;;;;;;6255253;23;20000;-44
2022/05/10 02:42:11;;;;;;;4.10;2.03;;;21.80;51.20;;;;;;6255349;23;19992;-44
2022/05/10 02:44:38;;;;;;;1.92;1.60;;;21.70;51.10;;;;;;6245421;23;20130;-45
2022/05/10 02:47:05;;;;;;;2.28;1.70;;;21.80;53.90;;;;;;6255177;23;20046;-45
2022/05/10 02:49:31;;;;;;;1.45;1.35;;;21.60;84.30;;;;;;6255101;23;20014;-44
2022/05/10 02:51:57;;;;;;;2.10;1.55;;;21.80;84.40;;;;;;6244966;23;20443;-45
2022/05/10 02:54:22;;;;;;;2.38;1.60;;;21.40;63.60;;;;;;6245261;23;20065;-45
2022/05/10 02:56:50;;;;;;;2.40;1.38;;;22.00;84.70;;;;;;6245342;23;20001;-44
2022/05/10 02:59:23;;;;;;;2.90;1.88;;;21.90;65.80;;;;;;6255185;23;19996;-44
2022/05/10 03:01:59;;;;;;;2.78;1.60;;;21.70;51.10;;;;;;6255117;22;20159;-45
2022/05/10 03:04:36;;;;;;;2.53;1.52;;;21.70;51.20;;;;;;6244821;23;20162;-44
2022/05/10 03:07:04;;;;;;;2.72;1.80;;;21.30;62.50;;;;;;6255024;23;20292;-44
2022/05/10 03:09:29;;;;;;;2.47;1.70;;;21.60;76.00;;;;;;6254912;23;20011;-44
2022/05/10 03:11:55;;;;;;;2.15;1.48;;;21.80;51.10;;;;;;6255016;23;20072;-44
2022/05/10 03:14:21;;;;;;;2.53;1.55;;;;;;;;;;6255386;23;20000;-45
2022/05/10 03:16:47;;;;;;;2.25;1.75;;;;;;;;;;6254967;23;20067;-45
2022/05/10 03:19:16;;;;;;;3.75;1.70;;;;;;;;;;6254893;23;20027;-45
2022/05/10 03:21:42;;;;;;;3.00;1.67;;;21.80;84.20;;;;;;6244693;23;19996;-45
2022/05/10 03:24:08;;;;;;;2.45;1.50;;;21.90;83.80;;;;;;6254907;23;20003;-44
2022/05/10 03:26:33;;;;;;;3.35;2.00;;;21.60;70.10;;;;;;6254837;23;20019;-45
2022/05/10 03:28:59;;;;;;;3.78;1.92;;;;;;;;;;6254726;23;20007;-45
2022/05/10 03:31:27;;;;;;;3.63;1.98;;;21.70;51.30;;;;;;6254796;23;20019;-45
2022/05/10 03:36:38;;;;;;;2.42;1.63;;;21.60;84.60;;;;;;6244815;23;20066;-44
2022/05/10 03:39:05;;;;;;;4.45;1.75;;;21.90;84.60;;;;;;6254777;23;20000;-44
2022/05/10 03:41:30;;;;;;;2.80;1.80;;;21.70;84.50;;;;;;6254758;23;19996;-44
2022/05/10 03:43:56;;;;;;;2.25;1.70;;;21.40;84.30;;;;;;6254783;23;20057;-44
2022/05/10 03:46:22;;;;;;;2.03;1.60;;;21.70;84.50;;;;;;6254666;23;19992;-45
2022/05/10 03:48:49;;;;;;;1.95;1.75;;;;;;;;;;6254618;23;20000;-44
2022/05/10 03:51:14;;;;;;;2.55;2.05;;;21.50;84.50;;;;;;6254714;23;20031;-45
2022/05/10 03:53:40;;;;;;;3.47;2.00;;;;;;;;;;6244399;23;20323;-45
2022/05/10 03:56:06;;;;;;;3.45;1.77;;;21.60;84.40;;;;;;6254440;23;20027;-45
2022/05/10 03:58:31;;;;;;;4.05;1.50;;;21.60;68.50;;;;;;6254724;23;19999;-44
2022/05/10 04:00:57;;;;;;;3.38;2.00;;;;;;;;;;6254651;23;19992;-45
2022/05/10 04:03:23;;;;;;;2.47;1.95;;;;;;;;;;6254226;22;20008;-45
2022/05/10 04:05:49;;;;;;;3.63;1.90;;;21.30;84.30;;;;;;6254640;23;20075;-46
2022/05/10 04:08:14;;;;;;;2.05;1.83;;;21.40;84.50;;;;;;6254550;23;20073;-45
2022/05/10 04:10:40;;;;;;;2.50;1.80;;;21.80;84.60;;;;;;6254483;23;20011;-44
2022/05/10 04:13:07;;;;;;;4.30;1.98;;;21.70;83.20;;;;;;6254512;23;20067;-45
2022/05/10 04:15:32;;;;;;;2.88;1.73;;;20.50;51.10;;;;;;6244417;23;20046;-44
2022/05/10 04:17:58;;;;;;;2.60;1.83;;;21.30;84.40;;;;;;6254595;23;19996;-45
2022/05/10 04:20:24;;;;;;;2.75;1.90;;;21.90;71.00;;;;;;6254568;23;20007;-44
2022/05/10 04:22:50;;;;;;;2.50;1.85;;;;;;;;;;6254564;23;19999;-45
2022/05/10 04:25:23;;;;;;;3.03;1.98;;;21.60;51.20;;;;;;6254457;23;20004;-45
2022/05/10 04:27:50;;;;;;;3.22;2.13;;;21.80;84.60;;;;;;6254647;23;19992;-45
2022/05/10 04:30:17;;;;;;;4.45;2.13;;;21.80;61.30;;;;;;6254360;23;20008;-45
2022/05/10 04:32:43;;;;;;;2.30;1.45;;;21.60;84.80;;;;;;6254587;23;19996;-44
2022/05/10 04:35:09;;;;;;;3.10;2.10;;;21.80;84.90;;;;;;6217541;23;19996;-45
2022/05/10 04:37:35;;;;;;;3.22;1.90;;;21.60;84.60;;;;;;6244617;23;20292;-45
2022/05/10 04:42:46;;;;;;;2.90;1.90;;;21.80;78.40;;;;;;6254525;23;20008;-45
2022/05/10 04:45:13;;;;;;;2.65;1.70;;;21.70;67.40;;;;;;6244558;23;20000;-45
2022/05/10 04:47:39;;;;;;;2.38;1.63;;;21.70;84.80;;;;;;6254448;23;19999;-45
2022/05/10 04:50:05;;;;;;;3.53;1.73;;;;;;;;;;6254263;23;20004;-45
2022/05/10 04:52:31;;;;;;;3.90;2.08;;;21.60;84.80;;;;;;6244551;23;20134;-45
2022/05/10 04:54:56;;;;;;;4.20;2.00;;;21.70;84.80;;;;;;6254516;23;20020;-45
2022/05/10 04:57:22;;;;;;;2.33;1.48;;;;;;;;;;6254339;23;20066;-45
2022/05/10 04:59:48;;;;;;;3.85;1.95;;;21.30;84.60;;;;;;6254294;23;19996;-45
2022/05/10 05:02:14;;;;;;;3.30;1.70;;;;;;;;;;6254210;22;20308;-45
2022/05/10 05:04:39;;;;;;;2.63;1.70;;;21.80;51.40;;;;;;6254047;23;20016;-45
2022/05/10 05:07:05;;;;;;;1.55;1.45;;;;;;;;;;6254291;23;20041;-45
2022/05/10 05:09:31;;;;;;;2.88;1.90;;;;;;;;;;6245401;23;20008;-45
2022/05/10 05:11:58;;;;;;;2.72;1.92;;;;;;;;;;6256134;23;20076;-45
2022/05/10 05:14:23;;;;;;;2.28;1.75;;;21.40;54.50;;;;;;6255992;23;20337;-45
2022/05/10 05:16:49;;;;;;;1.50;1.40;;;;;;;;;;6255986;23;20008;-45
2022/05/10 05:19:15;;;;;;;3.05;1.52;;;21.70;85.00;;;;;;6255925;23;20000;-45
2022/05/10 05:21:40;;;;;;;2.25;1.42;;;21.70;85.70;;;;;;6255865;23;19996;-45
2022/05/10 05:24:08;;;;;;;2.10;1.30;;;;;;;;;;6255983;23;19996;-45
2022/05/10 05:26:34;;;;;;;3.15;1.55;;;;;;;;;;6245759;23;20450;-45
2022/05/10 05:29:00;;;;;;;1.80;1.70;;;;;;;;;;6255986;23;20004;-45
2022/05/10 05:31:26;;;;;;;7.03;1.83;;;;;;;;;;6255819;23;20004;-46
2022/05/10 05:33:54;;;;;;;5.15;2.53;;;;;;;;;;6255796;23;20072;-44
2022/05/10 05:36:20;;;;;;;4.50;1.95;;;;;;;;;;6255824;23;20509;-45
2022/05/10 05:38:46;;;;;;;3.38;1.45;;;;;;;;;;6255793;23;20000;-45
2022/05/10 05:41:12;;;;;;;2.47;1.80;;;;;;;;;;6255806;23;20335;-45
2022/05/10 05:43:37;;;;;;;3.40;2.00;;;;;;;;;;6255780;23;20331;-45
2022/05/10 05:46:05;;;;;;;2.72;1.83;;;;;;;;;;6255822;23;20000;-44
2022/05/10 05:48:30;;;;;;;2.88;2.00;;;21.80;85.70;;;;;;6245999;23;20138;-44
2022/05/10 05:50:56;;;;;;;5.20;2.10;;;21.90;79.90;;;;;;6255656;23;20035;-45
2022/05/10 05:53:22;;;;;;;3.90;2.08;;;;;;;;;;6255733;23;20003;-45
2022/05/10 05:55:48;;;;;;;2.55;1.75;;;21.60;85.10;;;;;;6255622;23;20000;-45
2022/05/10 05:58:15;;;;;;;3.63;1.63;;;21.70;51.60;;;;;;6245859;23;19996;-45
2022/05/10 06:00:41;;;;;;;5.28;2.00;;;21.60;85.10;;;;;;6255729;23;20031;-45
2022/05/10 06:03:07;;;;;;;2.33;1.80;;;;;;;;;;6255260;22;20007;-46
2022/05/10 06:05:33;;;;;;;11.82;2.53;;;;;;;;;;6255846;23;20055;-54
2022/05/10 06:07:58;;;;;;;8.10;2.03;;;21.80;64.40;;;;;;6256099;23;20022;-55
2022/05/10 06:10:24;;;;;;;4.28;1.77;;;21.80;65.80;;;;;;6255945;23;20008;-55
2022/05/10 06:12:50;;;;;;;3.88;1.50;;;21.60;85.20;;;;;;6255868;23;20050;-55
2022/05/10 06:15:18;;;;;;;4.40;2.30;;;21.90;85.40;;;;;;6255902;23;20366;-53
2022/05/10 06:17:45;;;;;;;4.00;1.50;;;21.70;54.50;;;;;;6255965;23;19992;-55
2022/05/10 06:20:14;;;;;;;1.70;1.58;;;21.70;51.90;;;;;;6255765;23;20131;-56
2022/05/10 06:22:44;;;;;;;4.00;1.92;;;;;;;;;;6255995;23;19996;-55
2022/05/10 06:25:17;;;;;;;3.28;1.88;;;21.30;80.30;;;;;;6246181;23;20407;-54
2022/05/10 06:27:43;;;;;;;6.75;2.08;;;21.90;85.70;;;;;;6255897;23;20000;-51
2022/05/10 06:30:11;;;;;;;3.67;2.10;;;21.60;52.30;;;;;;6255431;23;20360;-51
2022/05/10 06:32:36;;;;;;;4.65;2.00;;;21.70;85.70;;;;;;6255484;23;19999;-51
2022/05/10 06:35:02;;;;;;;4.20;1.67;;;21.70;85.40;;;;;;6245399;23;19996;-51
2022/05/10 06:40:16;;;;;;;2.55;1.88;;;21.50;85.30;;;;;;6255636;23;20015;-50
2022/05/10 06:42:41;;;;;;;5.05;2.42;;;21.70;51.80;;;;;;6245340;23;20082;-50
2022/05/10 06:45:10;;;;;;;4.60;2.30;;;21.70;52.20;;;;;;6255253;23;20508;-52
2022/05/10 06:47:41;;;;;;;5.40;2.35;;;22.00;85.60;;;;;;6254767;23;20003;-53
2022/05/10 06:50:10;;;;;;;5.90;1.90;;;21.70;85.60;;;;;;6245622;23;20087;-53
2022/05/10 06:52:36;;;;;;;2.92;1.70;;;21.80;85.60;;;;;;6255617;23;19992;-49
2022/05/10 06:55:02;;;;;;;2.80;1.85;;;;;;;;;;6255526;23;19996;-50
2022/05/10 06:57:28;;;;;;;2.88;1.88;;;;;;;;;;6255518;23;20075;-51
2022/05/10 06:59:54;;;;;;;3.30;2.15;;;21.70;55.60;;;;;;6255502;23;20027;-51
2022/05/10 07:02:21;;;;;;;3.25;2.15;;;21.90;84.90;;;;;;6255524;22;20000;-51
2022/05/10 07:04:47;;;;;;;2.53;1.90;;;;;;;;;;6255165;23;20344;-51
2022/05/10 07:07:12;;;;;;;5.38;2.10;;;21.60;84.60;;;;;;6255247;23;19999;-50
2022/05/10 07:09:38;;;;;;;3.65;1.88;;;21.50;84.50;;;;;;6255344;23;20004;-52
2022/05/10 07:12:04;;;;;;;3.25;2.13;;;21.60;51.80;;;;;;6255411;23;20058;-52
2022/05/10 07:14:30;;;;;;;2.47;2.00;;;;;;;;;;6255520;23;20432;-50
2022/05/10 07:16:56;;;;;;;3.75;2.38;;;;;;;;;;6255310;23;19997;-50
2022/05/10 07:19:22;;;;;;;4.72;1.98;;;21.50;74.60;;;;;;6255479;23;20328;-51
2022/05/10 07:21:50;;;;;;;2.53;2.15;;;;;;;;;;6255219;23;20003;-53
2022/05/10 07:24:19;;;;;;;2.85;1.92;;;;;;;;;;6255063;23;20466;-52
2022/05/10 07:26:47;;;;;;;2.25;1.95;;;21.80;85.30;;;;;;6254876;23;19996;-50
2022/05/10 07:29:14;;;;;;;3.47;2.47;;;21.80;85.40;;;;;;6255017;23;20004;-54
2022/05/10 07:31:40;;;;;;;4.55;1.85;;;21.50;85.30;;;;;;6254966;23;20004;-52
2022/05/10 07:34:06;;;;;;;5.40;2.30;;;21.80;77.00;;;;;;6228097;23;20057;-50
2022/05/10 07:36:35;;;;;;;4.18;2.13;;;21.80;85.30;;;;;;6255313;23;19996;-51
2022/05/10 07:39:04;;;;;;;2.22;2.03;;;21.50;52.50;;;;;;6255306;23;20100;-50
2022/05/10 07:41:30;;;;;;;6.05;2.05;;;21.70;79.10;;;;;;6255061;23;20000;-52
2022/05/10 07:43:56;;;;;;;4.57;2.50;;;21.70;70.90;;;;;;6255253;23;20465;-52
2022/05/10 07:46:22;;;;;;;2.15;1.95;;;21.90;59.30;;;;;;6255194;23;20000;-51
2022/05/10 07:48:48;;;;;;;2.33;2.00;;;;;;;;;;6255044;23;20427;-51
2022/05/10 07:51:14;;;;;;;4.22;1.98;;;22.10;55.10;;;;;;6255205;23;19996;-51
2022/05/10 07:53:41;;;;;;;4.13;2.10;;;21.90;85.00;;;;;;6245414;23;20007;-53
2022/05/10 07:56:07;;;;;;;8.65;2.15;;;21.70;85.10;;;;;;6255249;23;19997;-51
2022/05/10 07:58:34;;;;;;;2.10;1.90;;;22.00;85.40;;;;;;6245375;23;19996;-51
2022/05/10 08:01:01;;;;;;;3.75;2.17;;;21.80;85.20;;;;;;6255056;23;20050;-51
2022/05/10 08:03:28;;;;;;;3.03;1.67;;;;;;;;;;6244827;22;20107;-53
2022/05/10 08:05:59;;;;;;;4.68;2.15;;;20.00;51.30;;;;;;6255108;23;20005;-52
2022/05/10 08:08:25;;;;;;;5.03;2.17;;;22.10;85.40;;;;;;6245237;23;20001;-52
2022/05/10 08:10:53;;;;;;;2.33;1.95;;;21.80;51.70;;;;;;6254856;23;20435;-51
2022/05/10 08:13:21;;;;;;;2.95;2.15;;;21.50;84.90;;;;;;6244714;23;20419;-51
2022/05/10 08:15:48;;;;;;;5.05;2.15;;;21.90;52.00;;;;;;6255126;23;20023;-53
2022/05/10 08:18:14;;;;;;;4.53;2.25;;;;;;;;;;6254888;23;19993;-50
2022/05/10 08:20:41;;;;;;;2.95;1.88;;;21.90;52.00;;;;;;6254904;23;20007;-50
2022/05/10 08:23:07;;;;;;;3.20;2.10;;;21.80;85.00;;;;;;6254925;23;20027;-50
2022/05/10 08:25:34;;;;;;;3.63;2.10;;;21.90;51.70;;;;;;6254978;23;20035;-51
2022/05/10 08:28:00;;;;;;;2.30;2.05;;;21.90;84.70;;;;;;6245023;23;20323;-51
2022/05/10 08:30:26;;;;;;;3.60;2.30;;;;;;;;;;6254724;23;20040;-54
2022/05/10 08:32:52;;;;;;;2.75;1.90;;;;;;;;;;6245154;23;20007;-52
2022/05/10 08:35:18;;;;;;;3.13;1.73;;;;;;;;;;6254814;23;20400;-53
2022/05/10 08:37:44;;;;;;;2.28;1.98;;;21.80;68.90;;;;;;6254783;23;19996;-51
2022/05/10 08:40:25;;;;;;;2.40;2.08;;;21.90;50.90;;;;;;6254808;23;20091;-51
2022/05/10 08:42:56;;;;;;;3.35;2.13;;;22.00;51.80;;;;;;6228426;23;20000;-54
2022/05/10 08:45:24;;;;;;;3.15;2.28;;;22.10;74.10;;;;;;6256866;23;20008;-51
2022/05/10 08:47:50;;;;;;;2.70;2.20;;;;;;;;;;6256825;23;20000;-50
2022/05/10 08:50:16;;;;;;;2.30;2.10;;;22.30;80.80;;;;;;6256667;23;20008;-51
2022/05/10 08:52:45;;;;;;;2.45;2.25;;;22.20;84.20;;;;;;6257238;23;19992;-51
2022/05/10 08:55:13;;;;;;;3.67;2.30;;;22.20;84.40;;;;;;6246832;23;20003;-51
2022/05/10 08:57:46;;;;;;;3.08;2.25;;;22.00;84.00;;;;;;6256721;23;19992;-53
2022/05/10 09:00:35;;;;;;;4.38;2.30;;;22.30;77.90;;;;;;6256723;23;19996;-52
2022/05/10 09:03:20;;;;;;;3.38;2.15;;;22.20;84.40;;;;;;6256203;22;20008;-52
2022/05/10 09:05:47;;;;;;;5.60;2.28;;;21.80;51.20;;;;;;6256587;23;20004;-51
2022/05/10 09:08:27;;;;;;;4.18;2.30;;;22.30;84.10;;;;;;6256597;23;20018;-55
2022/05/10 09:11:04;;;;;;;3.13;1.95;;;22.30;84.00;;;;;;6256667;23;20065;-52
2022/05/10 09:13:30;;;;;;;3.20;2.22;;;22.30;83.80;;;;;;6256512;23;20328;-51
2022/05/10 09:16:08;;;;;;;3.72;2.20;;;21.00;49.90;;;;;;6256568;23;19998;-51
2022/05/10 09:18:42;;;;;;;2.50;2.30;;;22.20;83.60;;;;;;6246300;23;20004;-51
2022/05/10 09:21:19;;;;;;;3.28;2.30;;;22.40;83.50;;;;;;6246698;23;19996;-54
2022/05/10 09:24:08;;;;;;;5.68;2.40;;;22.30;58.50;;;;;;6246319;23;20001;-51
2022/05/10 09:26:41;;;;;;;2.42;2.20;;;22.30;50.30;;;;;;6246539;23;20332;-53
2022/05/10 09:29:39;;;;;;;3.15;2.30;;;21.90;83.40;;;;;;6256482;23;19996;-53
2022/05/10 09:35:17;;;;;;;2.90;2.42;;;22.30;75.10;;;;;;6246304;23;20398;-50
2022/05/10 09:37:56;;;;;;;3.25;1.90;;;22.30;83.30;;;;;;6256391;23;19996;-51
2022/05/10 09:40:46;;;;;;;3.33;2.63;;;22.70;83.00;;;;;;6256514;23;20020;-49
2022/05/10 09:43:15;;;;;;;5.65;2.40;;;22.50;82.40;;;;;;6256064;23;19996;-51
2022/05/10 09:45:41;;;;;;;2.95;2.75;;;22.40;82.90;;;;;;6218980;23;20420;-51
2022/05/10 09:48:13;;;;;;;4.72;2.40;;;22.30;82.60;;;;;;6228986;23;20015;-51
2022/05/10 09:50:42;;;;;;;3.65;3.25;;;22.50;82.60;;;;;;6255690;23;20054;-50
2022/05/10 09:53:27;;;;;;;6.53;2.28;;;22.40;82.60;;;;;;6246327;23;19996;-52
2022/05/10 09:56:11;;;;;;;5.38;2.70;;;22.30;82.70;;;;;;6245961;23;20079;-51
2022/05/10 09:58:53;;;;;;;4.40;2.70;;;22.60;82.80;;;;;;6256050;23;20001;-51
2022/05/10 10:01:47;;;;;;;8.60;2.38;;;22.60;82.80;;;;;;6255953;22;19992;-54
2022/05/10 10:04:12;;;;;;;8.43;2.45;;;22.70;82.70;;;;;;6245673;23;20446;-52
2022/05/10 10:06:38;;;;;;;2.63;2.25;;;22.40;82.60;;;;;;6256294;23;20079;-52
2022/05/10 10:09:03;;;;;;;3.03;2.47;;;22.30;67.90;;;;;;6255823;23;20442;-54
2022/05/10 10:11:32;;;;;;;3.95;2.53;;;22.90;82.70;;;;;;6245899;23;20442;-54
2022/05/10 10:14:08;;;;;;;3.40;2.38;;;22.90;79.60;;;;;;6218763;23;20022;-52
2022/05/10 10:16:35;;;;;;;3.33;1.98;;;22.70;50.30;;;;;;6255819;23;20371;-55
2022/05/10 10:19:32;;;;;;;5.78;2.30;;;22.60;82.10;;;;;;6245942;23;20034;-53
2022/05/10 10:22:06;;;;;;;2.90;2.22;;;22.50;82.10;;;;;;6208084;23;20004;-50
2022/05/10 10:24:37;;;;;;;4.45;2.45;;;22.40;82.40;;;;;;6245594;23;19997;-53
2022/05/10 10:27:09;;;;;;;5.00;2.55;;;22.80;82.60;;;;;;6255715;23;20002;-50
2022/05/10 10:29:43;;;;;;;3.60;2.50;;;22.70;82.40;;;;;;6245725;23;20371;-52
2022/05/10 10:32:20;;;;;;;3.40;2.50;;;22.30;82.10;;;;;;6255828;23;20007;-55
2022/05/10 10:34:54;;;;;;;3.05;2.33;;;23.00;82.70;;;;;;6255772;23;20003;-54
2022/05/10 10:37:34;;;;;;;3.20;2.25;;;22.80;68.90;;;;;;6256158;23;20030;-55
2022/05/10 10:40:24;;;;;;;5.82;2.50;;;22.80;49.70;;;;;;6255848;23;20327;-55
2022/05/10 10:43:08;;;;;;;2.58;2.17;;;22.80;49.60;;;;;;6255716;23;20231;-54
2022/05/10 10:45:44;;;;;;;3.40;2.20;;;22.90;49.60;;;;;;6255748;23;19992;-55
2022/05/10 10:48:41;;;;;;;2.42;2.22;;;23.10;82.10;;;;;;6245829;23;20026;-56
2022/05/10 10:51:09;;;;;;;3.95;2.40;;;23.20;82.20;;;;;;6223163;23;20034;-55
2022/05/10 10:53:37;;;;;;;2.35;1.85;;;23.00;81.90;;;;;;6255658;23;19996;-55
2022/05/10 10:56:34;;;;;;;5.13;2.10;;;23.20;81.90;;;;;;6255662;23;20099;-55
2022/05/10 10:59:23;;;;;;;2.55;1.90;;;22.80;81.60;;;;;;6255625;23;20011;-47
2022/05/10 11:02:03;;;;;;;4.50;2.17;;;23.10;81.70;;;;;;6245743;22;20075;-47
2022/05/10 11:04:53;;;;;;;3.00;2.60;;;22.90;81.50;;;;;;6255432;23;20015;-47
2022/05/10 11:07:51;;;;;;;3.22;2.10;;;22.90;81.40;;;;;;6255065;23;20001;-46
2022/05/10 11:10:37;;;;;;;3.08;1.92;;;23.20;81.40;;;;;;6255472;23;20041;-47
2022/05/10 11:13:13;;;;;;;3.90;2.60;;;23.30;81.80;;;;;;6255509;23;20043;-47
2022/05/10 11:15:47;;;;;;;3.92;2.13;;;23.20;81.60;;;;;;6255514;23;20007;-47
2022/05/10 11:18:27;;;;;;;3.15;2.25;;;23.10;81.60;;;;;;6255491;23;19999;-47
2022/05/10 11:21:19;;;;;;;2.13;1.95;;;23.40;81.70;;;;;;6255466;23;20034;-47
2022/05/10 11:23:53;;;;;;;2.53;2.05;;;23.10;81.70;;;;;;6255411;23;20000;-47
2022/05/10 11:26:46;;;;;;;1.83;1.60;;;23.10;81.60;;;;;;6245430;23;20332;-47
2022/05/10 11:29:36;;;;;;;4.32;1.98;;;23.50;81.60;;;;;;6255013;23;20000;-47
2022/05/10 11:32:46;;;;;;;2.53;2.33;;;23.10;81.20;;;;;;6245239;23;20003;-47
2022/05/10 11:35:42;;;;;;;3.53;1.80;;;23.60;81.60;;;;;;6255264;23;20074;-47
2022/05/10 11:38:31;;;;;;;2.97;2.17;;;23.20;80.90;;;;;;6245514;23;20087;-47
2022/05/10 11:41:05;;;;;;;2.75;2.22;;;23.20;81.30;;;;;;6255165;23;20030;-47
2022/05/10 11:44:00;;;;;;;2.38;2.15;;;23.20;81.30;;;;;;6255286;23;19996;-47
2022/05/10 11:46:47;;;;;;;3.03;2.33;;;23.00;81.20;;;;;;6235162;23;20008;-47
2022/05/10 11:49:24;;;;;;;2.42;2.10;;;23.40;81.80;;;;;;6255109;23;20000;-47
2022/05/10 11:51:50;;;;;;;4.82;2.28;;;23.50;82.00;;;;;;6255144;23;20083;-48
2022/05/10 11:54:55;;;;;;;3.80;2.13;;;23.40;82.00;;;;;;6218017;23;20057;-47
2022/05/10 11:57:23;;;;;;;2.20;1.92;;;23.40;82.10;;;;;;6255144;23;20071;-48
2022/05/10 11:59:48;;;;;;;2.10;1.90;;;23.60;82.00;;;;;;6255082;23;19996;-48
2022/05/10 12:02:29;;;;;;;4.53;2.38;;;23.30;81.80;;;;;;6254803;22;19993;-47
2022/05/10 12:05:10;;;;;;;3.75;2.05;;;23.40;82.00;;;;;;6254886;23;20015;-47
2022/05/10 12:07:43;;;;;;;2.30;2.10;;;23.30;60.60;;;;;;6255085;23;20000;-48
2022/05/10 12:10:30;;;;;;;3.60;1.85;;;23.40;48.90;;;;;;6254903;23;20014;-47
2022/05/10 12:12:59;;;;;;;2.05;1.90;;;23.70;79.60;;;;;;6255084;23;20114;-47
2022/05/10 12:21:19;;;;;;;2.45;2.25;;;23.60;82.00;;;;;;6247064;23;20026;-46
2022/05/10 12:24:21;;;;;;;2.20;2.00;;;23.30;81.90;;;;;;6257111;23;20003;-46
2022/05/10 12:26:55;;;;;;;2.22;2.00;;;23.60;82.10;;;;;;6257070;23;20023;-46
2022/05/10 12:29:55;;;;;;;2.78;1.90;;;23.10;81.70;;;;;;6256908;23;20008;-47
2022/05/10 12:32:39;;;;;;;2.90;2.40;;;23.70;82.00;;;;;;6246842;23;20042;-47
2022/05/10 12:35:07;;;;;;;4.55;1.98;;;23.60;82.20;;;;;;6256915;23;20041;-47
2022/05/10 12:37:40;;;;;;;2.40;2.05;;;23.60;82.20;;;;;;6257002;23;20012;-48
2022/05/10 12:40:11;;;;;;;2.15;2.05;;;23.50;66.70;;;;;;6256913;23;20018;-47
2022/05/10 12:42:54;;;;;;;2.30;1.95;;;22.90;81.60;;;;;;6256907;23;20035;-47
2022/05/10 12:45:55;;;;;;;2.17;1.98;;;23.40;48.90;;;;;;6256874;23;20075;-46
2022/05/10 12:48:39;;;;;;;3.80;1.90;;;23.40;81.90;;;;;;6256774;23;20000;-47
2022/05/10 12:51:26;;;;;;;3.55;2.10;;;23.50;81.90;;;;;;6247015;23;20305;-47
2022/05/10 12:54:11;;;;;;;2.40;2.20;;;23.60;81.90;;;;;;6256806;23;20000;-46
2022/05/10 12:56:44;;;;;;;3.30;2.05;;;23.20;81.70;;;;;;6246930;23;19996;-47
2022/05/10 12:59:17;;;;;;;3.80;1.83;;;23.30;81.80;;;;;;6246814;23;20004;-47
2022/05/10 13:01:44;;;;;;;1.92;1.83;;;23.70;81.80;;;;;;6256625;22;20408;-48
2022/05/10 13:04:13;;;;;;;2.58;1.77;;;23.60;81.80;;;;;;6256355;23;20044;-47
2022/05/10 13:07:06;;;;;;;1.95;1.70;;;23.20;81.50;;;;;;6246797;23;19993;-47
2022/05/10 13:09:36;;;;;;;2.50;2.30;;;23.30;81.70;;;;;;6256597;23;20004;-48
2022/05/10 13:12:18;;;;;;;2.35;1.95;;;23.70;53.10;;;;;;6256577;23;20309;-47
2022/05/10 13:15:03;;;;;;;1.95;1.80;;;23.50;49.40;;;;;;6246820;23;20003;-47
2022/05/10 13:17:34;;;;;;;3.20;2.00;;;23.30;81.60;;;;;;6219408;23;20443;-47
2022/05/10 13:20:06;;;;;;;2.17;2.03;;;23.70;81.90;;;;;;6246599;23;20309;-47
2022/05/10 13:22:32;;;;;;;2.70;1.80;;;23.30;49.30;;;;;;6246697;23;20027;-47
2022/05/10 13:25:00;;;;;;;3.35;2.15;;;23.80;82.00;;;;;;6256536;23;19996;-46
2022/05/10 13:27:26;;;;;;;3.75;2.35;;;;;;;;;;6246599;23;19993;-46
2022/05/10 13:29:54;;;;;;;2.13;1.92;;;23.50;49.40;;;;;;6256234;23;20081;-47
2022/05/10 13:32:44;;;;;;;2.00;1.85;;;23.40;53.90;;;;;;6246454;23;20343;-46
2022/05/10 13:35:12;;;;;;;;;;;23.40;49.40;;;;;;6256974;23;20007;-46
2022/05/10 13:37:41;;;;;;;1.95;1.85;;;23.40;56.20;;;;;;6256208;23;19906;-47
2022/05/10 13:40:19;;;;;;;2.95;2.00;;;23.10;65.40;;;;;;6256301;23;19992;-47
2022/05/10 13:42:46;;;;;;;2.88;2.20;;;23.30;81.50;;;;;;6253344;23;20000;-48
2022/05/10 13:45:19;;;;;;;4.30;1.92;;;23.40;70.00;;;;;;6256286;23;20435;-46
2022/05/10 13:47:48;;;;;;;2.95;2.10;;;23.70;81.80;;;;;;6256305;23;20023;-47
2022/05/10 13:50:28;;;;;;;2.38;2.10;;;23.50;49.40;;;;;;6255970;23;20107;-48
2022/05/10 13:52:59;;;;;;;3.20;2.00;;;23.50;81.90;;;;;;6256164;23;20331;-47